sensor_id;sensor_type;location;lat;lon;timestamp;temperature;humidity
6377;DHT22;3221;48.858;10.128;2023-04-01T00:01:47;8.20;99.90
6377;DHT22;3221;48.858;10.128;2023-04-01T00:04:13;8.20;99.90
6377;DHT22;3221;48.858;10.128;2023-04-01T00:06:42;8.10;99.90
6377;DHT22;3221;48.858;10.128;2023-04-01T00:09:09;8.10;99.90
6377;DHT22;3221;48.858;10.128;2023-04-01T00:11:36;8.20;99.90
6377;DHT22;3221;48.858;10.128;2023-04-01T00:14:03;8.10;99.90
6377;DHT22;3221;48.858;10.128;2023-04-01T00:16:30;8.10;99.90
6377;DHT22;3221;48.858;10.128;2023-04-01T00:18:57;8.10;99.90
6377;DHT22;3221;48.858;10.128;2023-04-01T00:21:24;8.10;99.90
6377;DHT22;3221;48.858;10.128;2023-04-01T00:23:51;8.10;99.90
6377;DHT22;3221;48.858;10.128;2023-04-01T00:26:19;8.10;99.90
6377;DHT22;3221;48.858;10.128;2023-04-01T00:28:48;8.00;99.90
6377;DHT22;3221;48.858;10.128;2023-04-01T00:31:15;8.20;99.90
6377;DHT22;3221;48.858;10.128;2023-04-01T00:33:42;8.00;99.90
6377;DHT22;3221;48.858;10.128;2023-04-01T00:36:18;8.00;99.90
6377;DHT22;3221;48.858;10.128;2023-04-01T00:38:45;8.00;99.90
6377;DHT22;3221;48.858;10.128;2023-04-01T00:41:14;8.00;99.90
6377;DHT22;3221;48.858;10.128;2023-04-01T00:43:44;8.00;99.90
6377;DHT22;3221;48.858;10.128;2023-04-01T00:46:12;8.00;99.90
6377;DHT22;3221;48.858;10.128;2023-04-01T00:48:45;8.00;99.90
6377;DHT22;3221;48.858;10.128;2023-04-01T00:51:27;7.90;99.90
6377;DHT22;3221;48.858;10.128;2023-04-01T00:53:58;8.00;99.90
6377;DHT22;3221;48.858;10.128;2023-04-01T00:56:29;8.00;99.90
6377;DHT22;3221;48.858;10.128;2023-04-01T00:59:10;8.10;99.90
6377;DHT22;3221;48.858;10.128;2023-04-01T01:01:37;8.00;99.90
6377;DHT22;3221;48.858;10.128;2023-04-01T01:04:05;7.90;99.90
6377;DHT22;3221;48.858;10.128;2023-04-01T01:09:38;8.00;99.90
6377;DHT22;3221;48.858;10.128;2023-04-01T01:12:14;8.00;99.90
6377;DHT22;3221;48.858;10.128;2023-04-01T01:15:06;8.00;99.90
6377;DHT22;3221;48.858;10.128;2023-04-01T01:26:14;8.00;99.90
6377;DHT22;3221;48.858;10.128;2023-04-01T01:31:45;7.90;99.90
6377;DHT22;3221;48.858;10.128;2023-04-01T01:36:55;7.80;99.90
6377;DHT22;3221;48.858;10.128;2023-04-01T01:39:28;7.90;99.90
6377;DHT22;3221;48.858;10.128;2023-04-01T01:41:57;7.90;99.90
6377;DHT22;3221;48.858;10.128;2023-04-01T01:44:28;7.90;99.90
6377;DHT22;3221;48.858;10.128;2023-04-01T01:46:57;7.90;99.90
6377;DHT22;3221;48.858;10.128;2023-04-01T01:49:25;7.90;99.90
6377;DHT22;3221;48.858;10.128;2023-04-01T01:51:52;7.90;99.90
6377;DHT22;3221;48.858;10.128;2023-04-01T01:54:19;7.90;99.90
6377;DHT22;3221;48.858;10.128;2023-04-01T01:56:49;7.90;99.90
6377;DHT22;3221;48.858;10.128;2023-04-01T01:59:19;7.90;99.90
6377;DHT22;3221;48.858;10.128;2023-04-01T02:01:52;7.80;99.90
6377;DHT22;3221;48.858;10.128;2023-04-01T02:04:21;7.80;99.90
6377;DHT22;3221;48.858;10.128;2023-04-01T02:06:58;7.80;99.90
6377;DHT22;3221;48.858;10.128;2023-04-01T02:09:26;7.80;99.90
6377;DHT22;3221;48.858;10.128;2023-04-01T02:12:08;7.80;99.90
6377;DHT22;3221;48.858;10.128;2023-04-01T02:14:52;7.80;99.90
6377;DHT22;3221;48.858;10.128;2023-04-01T02:17:26;7.80;99.90
6377;DHT22;3221;48.858;10.128;2023-04-01T02:19:59;7.80;99.90
6377;DHT22;3221;48.858;10.128;2023-04-01T02:22:29;7.80;99.90
6377;DHT22;3221;48.858;10.128;2023-04-01T02:25:01;7.80;99.90
6377;DHT22;3221;48.858;10.128;2023-04-01T02:27:30;7.80;99.90
6377;DHT22;3221;48.858;10.128;2023-04-01T02:29:57;7.80;99.90
6377;DHT22;3221;48.858;10.128;2023-04-01T02:32:25;7.80;99.90
6377;DHT22;3221;48.858;10.128;2023-04-01T02:34:54;7.80;99.90
6377;DHT22;3221;48.858;10.128;2023-04-01T02:37:21;7.80;99.90
6377;DHT22;3221;48.858;10.128;2023-04-01T02:39:49;7.80;99.90
6377;DHT22;3221;48.858;10.128;2023-04-01T02:42:16;7.80;99.90
6377;DHT22;3221;48.858;10.128;2023-04-01T02:44:43;7.80;99.90
6377;DHT22;3221;48.858;10.128;2023-04-01T02:47:09;7.80;99.90
6377;DHT22;3221;48.858;10.128;2023-04-01T02:49:36;7.70;99.90
6377;DHT22;3221;48.858;10.128;2023-04-01T02:52:03;7.70;99.90
6377;DHT22;3221;48.858;10.128;2023-04-01T02:54:30;7.70;99.90
6377;DHT22;3221;48.858;10.128;2023-04-01T02:56:57;7.70;99.90
6377;DHT22;3221;48.858;10.128;2023-04-01T02:59:24;7.70;99.90
6377;DHT22;3221;48.858;10.128;2023-04-01T03:01:51;7.60;99.90
6377;DHT22;3221;48.858;10.128;2023-04-01T03:04:18;7.60;99.90
6377;DHT22;3221;48.858;10.128;2023-04-01T03:06:45;7.60;99.90
6377;DHT22;3221;48.858;10.128;2023-04-01T03:09:12;7.60;99.90
6377;DHT22;3221;48.858;10.128;2023-04-01T03:11:39;7.60;99.90
6377;DHT22;3221;48.858;10.128;2023-04-01T03:14:07;7.50;99.90
6377;DHT22;3221;48.858;10.128;2023-04-01T03:16:34;7.50;99.90
6377;DHT22;3221;48.858;10.128;2023-04-01T03:19:01;7.60;99.90
6377;DHT22;3221;48.858;10.128;2023-04-01T03:21:29;7.50;99.90
6377;DHT22;3221;48.858;10.128;2023-04-01T03:23:56;7.60;99.90
6377;DHT22;3221;48.858;10.128;2023-04-01T03:26:22;7.70;99.90
6377;DHT22;3221;48.858;10.128;2023-04-01T03:28:50;7.50;99.90
6377;DHT22;3221;48.858;10.128;2023-04-01T03:31:16;7.50;99.90
6377;DHT22;3221;48.858;10.128;2023-04-01T03:33:49;7.50;99.90
6377;DHT22;3221;48.858;10.128;2023-04-01T03:36:17;7.50;99.90
6377;DHT22;3221;48.858;10.128;2023-04-01T03:38:44;7.70;99.90
6377;DHT22;3221;48.858;10.128;2023-04-01T03:41:16;7.50;99.90
6377;DHT22;3221;48.858;10.128;2023-04-01T03:43:44;7.50;99.90
6377;DHT22;3221;48.858;10.128;2023-04-01T03:46:11;7.50;99.90
6377;DHT22;3221;48.858;10.128;2023-04-01T03:48:38;7.40;99.90
6377;DHT22;3221;48.858;10.128;2023-04-01T03:51:08;7.40;99.90
6377;DHT22;3221;48.858;10.128;2023-04-01T03:53:35;7.40;99.90
6377;DHT22;3221;48.858;10.128;2023-04-01T03:56:05;7.40;99.90
6377;DHT22;3221;48.858;10.128;2023-04-01T03:58:35;7.40;99.90
6377;DHT22;3221;48.858;10.128;2023-04-01T04:01:17;7.40;99.90
6377;DHT22;3221;48.858;10.128;2023-04-01T04:03:46;7.40;99.90
6377;DHT22;3221;48.858;10.128;2023-04-01T04:06:14;7.20;99.90
6377;DHT22;3221;48.858;10.128;2023-04-01T04:08:41;7.30;99.90
6377;DHT22;3221;48.858;10.128;2023-04-01T04:11:08;7.30;99.90
6377;DHT22;3221;48.858;10.128;2023-04-01T04:13:38;7.30;99.90
6377;DHT22;3221;48.858;10.128;2023-04-01T04:16:06;7.30;99.90
6377;DHT22;3221;48.858;10.128;2023-04-01T04:18:34;7.30;99.90
6377;DHT22;3221;48.858;10.128;2023-04-01T04:21:01;7.30;99.90
6377;DHT22;3221;48.858;10.128;2023-04-01T04:23:28;7.30;99.90
6377;DHT22;3221;48.858;10.128;2023-04-01T04:25:59;7.30;99.90
6377;DHT22;3221;48.858;10.128;2023-04-01T04:28:28;7.40;99.90
6377;DHT22;3221;48.858;10.128;2023-04-01T04:30:57;7.40;99.90
6377;DHT22;3221;48.858;10.128;2023-04-01T04:33:25;7.30;99.90
6377;DHT22;3221;48.858;10.128;2023-04-01T04:35:54;7.30;99.90
6377;DHT22;3221;48.858;10.128;2023-04-01T04:38:23;7.20;99.90
6377;DHT22;3221;48.858;10.128;2023-04-01T04:40:50;7.30;99.90
6377;DHT22;3221;48.858;10.128;2023-04-01T04:43:18;7.20;99.90
6377;DHT22;3221;48.858;10.128;2023-04-01T04:45:45;7.30;99.90
6377;DHT22;3221;48.858;10.128;2023-04-01T04:48:16;7.20;99.90
6377;DHT22;3221;48.858;10.128;2023-04-01T04:50:49;7.20;99.90
6377;DHT22;3221;48.858;10.128;2023-04-01T04:53:18;7.20;99.90
6377;DHT22;3221;48.858;10.128;2023-04-01T04:55:47;7.10;99.90
6377;DHT22;3221;48.858;10.128;2023-04-01T04:58:24;7.20;99.90
6377;DHT22;3221;48.858;10.128;2023-04-01T05:00:51;7.20;99.90
6377;DHT22;3221;48.858;10.128;2023-04-01T05:03:26;7.20;99.90
6377;DHT22;3221;48.858;10.128;2023-04-01T05:05:53;7.10;99.90
6377;DHT22;3221;48.858;10.128;2023-04-01T05:08:20;7.10;99.90
6377;DHT22;3221;48.858;10.128;2023-04-01T05:10:47;7.10;99.90
6377;DHT22;3221;48.858;10.128;2023-04-01T05:13:14;7.10;99.90
6377;DHT22;3221;48.858;10.128;2023-04-01T05:15:44;7.10;99.90
6377;DHT22;3221;48.858;10.128;2023-04-01T05:18:11;7.10;99.90
6377;DHT22;3221;48.858;10.128;2023-04-01T05:20:38;7.30;99.90
6377;DHT22;3221;48.858;10.128;2023-04-01T05:23:05;7.10;99.90
6377;DHT22;3221;48.858;10.128;2023-04-01T05:25:32;7.10;99.90
6377;DHT22;3221;48.858;10.128;2023-04-01T05:27:59;7.20;99.90
6377;DHT22;3221;48.858;10.128;2023-04-01T05:30:26;7.00;99.90
6377;DHT22;3221;48.858;10.128;2023-04-01T05:32:59;7.10;99.90
6377;DHT22;3221;48.858;10.128;2023-04-01T05:35:26;7.10;99.90
6377;DHT22;3221;48.858;10.128;2023-04-01T05:37:54;7.10;99.90
6377;DHT22;3221;48.858;10.128;2023-04-01T05:40:20;7.10;99.90
6377;DHT22;3221;48.858;10.128;2023-04-01T05:42:47;7.10;99.90
6377;DHT22;3221;48.858;10.128;2023-04-01T05:45:15;7.20;99.90
6377;DHT22;3221;48.858;10.128;2023-04-01T05:48:01;7.20;99.90
6377;DHT22;3221;48.858;10.128;2023-04-01T05:50:35;7.30;99.90
6377;DHT22;3221;48.858;10.128;2023-04-01T05:53:03;7.10;99.90
6377;DHT22;3221;48.858;10.128;2023-04-01T05:55:31;7.10;99.90
6377;DHT22;3221;48.858;10.128;2023-04-01T05:57:58;7.30;99.90
6377;DHT22;3221;48.858;10.128;2023-04-01T06:00:26;7.20;99.90
6377;DHT22;3221;48.858;10.128;2023-04-01T06:02:54;7.20;99.90
6377;DHT22;3221;48.858;10.128;2023-04-01T06:05:26;7.20;99.90
6377;DHT22;3221;48.858;10.128;2023-04-01T06:08:06;7.20;99.90
6377;DHT22;3221;48.858;10.128;2023-04-01T06:19:40;7.30;99.90
6377;DHT22;3221;48.858;10.128;2023-04-01T06:22:31;7.20;99.90
6377;DHT22;3221;48.858;10.128;2023-04-01T06:34:03;7.30;99.90
6377;DHT22;3221;48.858;10.128;2023-04-01T06:36:55;7.30;99.90
6377;DHT22;3221;48.858;10.128;2023-04-01T06:44:55;7.30;99.90
6377;DHT22;3221;48.858;10.128;2023-04-01T06:50:47;7.30;99.90
6377;DHT22;3221;48.858;10.128;2023-04-01T06:56:28;7.30;99.90
6377;DHT22;3221;48.858;10.128;2023-04-01T06:59:17;7.50;99.90
6377;DHT22;3221;48.858;10.128;2023-04-01T07:02:06;7.30;99.90
6377;DHT22;3221;48.858;10.128;2023-04-01T07:04:47;7.30;99.90
6377;DHT22;3221;48.858;10.128;2023-04-01T07:07:43;7.30;99.90
6377;DHT22;3221;48.858;10.128;2023-04-01T07:10:19;7.30;99.90
6377;DHT22;3221;48.858;10.128;2023-04-01T07:13:13;7.30;99.90
6377;DHT22;3221;48.858;10.128;2023-04-01T07:16:21;7.40;99.90
6377;DHT22;3221;48.858;10.128;2023-04-01T07:19:16;7.40;99.90
6377;DHT22;3221;48.858;10.128;2023-04-01T07:25:34;7.40;99.90
6377;DHT22;3221;48.858;10.128;2023-04-01T07:28:30;7.40;99.90
6377;DHT22;3221;48.858;10.128;2023-04-01T07:34:16;7.50;99.90
6377;DHT22;3221;48.858;10.128;2023-04-01T07:37:12;7.50;99.90
6377;DHT22;3221;48.858;10.128;2023-04-01T07:45:29;7.40;99.90
6377;DHT22;3221;48.858;10.128;2023-04-01T07:50:54;7.50;99.90
6377;DHT22;3221;48.858;10.128;2023-04-01T07:53:36;7.50;99.90
6377;DHT22;3221;48.858;10.128;2023-04-01T07:56:10;7.50;99.90
6377;DHT22;3221;48.858;10.128;2023-04-01T07:59:05;7.60;99.90
6377;DHT22;3221;48.858;10.128;2023-04-01T08:08:03;7.50;99.90
6377;DHT22;3221;48.858;10.128;2023-04-01T08:11:32;7.40;99.90
6377;DHT22;3221;48.858;10.128;2023-04-01T08:14:24;7.50;99.90
6377;DHT22;3221;48.858;10.128;2023-04-01T08:22:30;7.40;99.90
6377;DHT22;3221;48.858;10.128;2023-04-01T08:25:03;7.50;99.90
6377;DHT22;3221;48.858;10.128;2023-04-01T08:27:44;7.50;99.90
6377;DHT22;3221;48.858;10.128;2023-04-01T08:38:42;7.60;99.90
6377;DHT22;3221;48.858;10.128;2023-04-01T08:50:48;7.80;99.90
6377;DHT22;3221;48.858;10.128;2023-04-01T09:08:21;7.60;99.90
6377;DHT22;3221;48.858;10.128;2023-04-01T09:11:11;7.70;99.90
6377;DHT22;3221;48.858;10.128;2023-04-01T09:22:21;7.70;99.90
6377;DHT22;3221;48.858;10.128;2023-04-01T09:25:06;7.70;99.90
6377;DHT22;3221;48.858;10.128;2023-04-01T09:27:45;7.80;99.90
6377;DHT22;3221;48.858;10.128;2023-04-01T09:30:31;7.70;99.90
6377;DHT22;3221;48.858;10.128;2023-04-01T09:33:16;7.70;99.90
6377;DHT22;3221;48.858;10.128;2023-04-01T09:36:18;7.70;99.90
6377;DHT22;3221;48.858;10.128;2023-04-01T09:41:36;7.60;99.90
6377;DHT22;3221;48.858;10.128;2023-04-01T09:44:23;7.60;99.90
6377;DHT22;3221;48.858;10.128;2023-04-01T09:47:39;7.60;99.90
6377;DHT22;3221;48.858;10.128;2023-04-01T10:07:32;7.50;99.90
6377;DHT22;3221;48.858;10.128;2023-04-01T10:19:19;7.60;99.90
6377;DHT22;3221;48.858;10.128;2023-04-01T10:22:22;7.70;99.90
6377;DHT22;3221;48.858;10.128;2023-04-01T10:25:29;7.60;99.90
6377;DHT22;3221;48.858;10.128;2023-04-01T10:46:35;7.60;99.90
6377;DHT22;3221;48.858;10.128;2023-04-01T10:49:20;7.70;99.90
6377;DHT22;3221;48.858;10.128;2023-04-01T10:55:35;7.70;99.90
6377;DHT22;3221;48.858;10.128;2023-04-01T10:58:52;7.70;99.90
6377;DHT22;3221;48.858;10.128;2023-04-01T11:16:43;7.70;99.90
6377;DHT22;3221;48.858;10.128;2023-04-01T11:19:38;7.70;99.90
6377;DHT22;3221;48.858;10.128;2023-04-01T11:36:11;7.60;99.90
6377;DHT22;3221;48.858;10.128;2023-04-01T11:45:37;7.60;99.90
6377;DHT22;3221;48.858;10.128;2023-04-01T12:05:03;7.60;99.90
6377;DHT22;3221;48.858;10.128;2023-04-01T12:10:50;7.70;99.90
6377;DHT22;3221;48.858;10.128;2023-04-01T12:13:50;7.70;99.90
6377;DHT22;3221;48.858;10.128;2023-04-01T12:25:19;7.70;99.90
6377;DHT22;3221;48.858;10.128;2023-04-01T12:55:44;7.90;99.90
6377;DHT22;3221;48.858;10.128;2023-04-01T13:09:51;7.90;99.90
6377;DHT22;3221;48.858;10.128;2023-04-01T13:12:29;7.90;99.90
6377;DHT22;3221;48.858;10.128;2023-04-01T13:26:34;7.90;99.90
6377;DHT22;3221;48.858;10.128;2023-04-01T13:29:35;7.90;99.90
6377;DHT22;3221;48.858;10.128;2023-04-01T13:32:23;7.90;99.90
6377;DHT22;3221;48.858;10.128;2023-04-01T13:52:42;8.00;99.90
6377;DHT22;3221;48.858;10.128;2023-04-01T14:09:31;8.00;99.90
6377;DHT22;3221;48.858;10.128;2023-04-01T14:15:22;8.00;99.90
6377;DHT22;3221;48.858;10.128;2023-04-01T14:18:17;8.10;99.90
6377;DHT22;3221;48.858;10.128;2023-04-01T14:24:41;8.00;99.90
6377;DHT22;3221;48.858;10.128;2023-04-01T14:35:33;8.10;99.90
6377;DHT22;3221;48.858;10.128;2023-04-01T14:49:51;8.00;99.90
6377;DHT22;3221;48.858;10.128;2023-04-01T14:52:28;8.10;99.90
6377;DHT22;3221;48.858;10.128;2023-04-01T14:54:56;8.10;99.90
6377;DHT22;3221;48.858;10.128;2023-04-01T14:57:27;8.10;99.90
6377;DHT22;3221;48.858;10.128;2023-04-01T15:02:40;8.10;99.90
6377;DHT22;3221;48.858;10.128;2023-04-01T15:11:15;8.10;99.90
6377;DHT22;3221;48.858;10.128;2023-04-01T15:13:58;8.10;99.90
6377;DHT22;3221;48.858;10.128;2023-04-01T15:25:13;8.10;99.90
6377;DHT22;3221;48.858;10.128;2023-04-01T15:27:50;8.10;99.90
6377;DHT22;3221;48.858;10.128;2023-04-01T15:30:22;8.10;99.90
6377;DHT22;3221;48.858;10.128;2023-04-01T15:34:11;8.00;99.90
6377;DHT22;3221;48.858;10.128;2023-04-01T15:39:15;8.10;99.90
6377;DHT22;3221;48.858;10.128;2023-04-01T15:42:04;8.10;99.90
6377;DHT22;3221;48.858;10.128;2023-04-01T15:44:46;8.20;99.90
6377;DHT22;3221;48.858;10.128;2023-04-01T15:55:37;8.10;99.90
6377;DHT22;3221;48.858;10.128;2023-04-01T15:58:30;8.30;99.90
6377;DHT22;3221;48.858;10.128;2023-04-01T16:06:48;8.10;99.90
6377;DHT22;3221;48.858;10.128;2023-04-01T16:09:36;8.10;99.90
6377;DHT22;3221;48.858;10.128;2023-04-01T16:15:04;8.00;99.90
6377;DHT22;3221;48.858;10.128;2023-04-01T16:20:23;8.10;99.90
6377;DHT22;3221;48.858;10.128;2023-04-01T16:22:58;8.10;99.90
6377;DHT22;3221;48.858;10.128;2023-04-01T16:25:39;8.10;99.90
6377;DHT22;3221;48.858;10.128;2023-04-01T16:31:33;8.10;99.90
6377;DHT22;3221;48.858;10.128;2023-04-01T16:34:18;8.10;99.90
6377;DHT22;3221;48.858;10.128;2023-04-01T16:36:53;8.10;99.90
6377;DHT22;3221;48.858;10.128;2023-04-01T16:42:46;8.00;99.90
6377;DHT22;3221;48.858;10.128;2023-04-01T16:48:27;8.00;99.90
6377;DHT22;3221;48.858;10.128;2023-04-01T16:50:58;8.00;99.90
6377;DHT22;3221;48.858;10.128;2023-04-01T16:58:56;7.90;99.90
6377;DHT22;3221;48.858;10.128;2023-04-01T17:01:30;7.90;99.90
6377;DHT22;3221;48.858;10.128;2023-04-01T17:04:38;8.00;99.90
6377;DHT22;3221;48.858;10.128;2023-04-01T17:16:01;8.00;99.90
6377;DHT22;3221;48.858;10.128;2023-04-01T17:21:21;7.90;99.90
6377;DHT22;3221;48.858;10.128;2023-04-01T17:26:52;8.00;99.90
6377;DHT22;3221;48.858;10.128;2023-04-01T17:57:52;7.90;99.90
6377;DHT22;3221;48.858;10.128;2023-04-01T18:00:32;7.90;99.90
6377;DHT22;3221;48.858;10.128;2023-04-01T18:06:17;7.90;99.90
6377;DHT22;3221;48.858;10.128;2023-04-01T18:16:45;7.80;99.90
6377;DHT22;3221;48.858;10.128;2023-04-01T18:22:34;7.80;99.90
6377;DHT22;3221;48.858;10.128;2023-04-01T18:25:21;7.90;99.90
6377;DHT22;3221;48.858;10.128;2023-04-01T18:28:11;7.90;99.90
6377;DHT22;3221;48.858;10.128;2023-04-01T18:30:39;7.80;99.90
6377;DHT22;3221;48.858;10.128;2023-04-01T18:33:29;7.90;99.90
6377;DHT22;3221;48.858;10.128;2023-04-01T18:38:57;7.80;99.90
6377;DHT22;3221;48.858;10.128;2023-04-01T18:41:40;7.70;99.90
6377;DHT22;3221;48.858;10.128;2023-04-01T18:50:18;7.90;99.90
6377;DHT22;3221;48.858;10.128;2023-04-01T18:55:42;7.80;99.90
6377;DHT22;3221;48.858;10.128;2023-04-01T19:01:23;7.90;99.90
6377;DHT22;3221;48.858;10.128;2023-04-01T19:07:00;7.80;99.90
6377;DHT22;3221;48.858;10.128;2023-04-01T19:09:43;7.80;99.90
6377;DHT22;3221;48.858;10.128;2023-04-01T19:12:38;7.80;99.90
6377;DHT22;3221;48.858;10.128;2023-04-01T19:15:27;7.80;99.90
6377;DHT22;3221;48.858;10.128;2023-04-01T19:20:34;7.80;99.90
6377;DHT22;3221;48.858;10.128;2023-04-01T19:23:40;7.70;99.90
6377;DHT22;3221;48.858;10.128;2023-04-01T19:26:29;7.70;99.90
6377;DHT22;3221;48.858;10.128;2023-04-01T19:34:49;7.70;99.90
6377;DHT22;3221;48.858;10.128;2023-04-01T19:37:32;7.70;99.90
6377;DHT22;3221;48.858;10.128;2023-04-01T19:40:19;7.60;99.90
6377;DHT22;3221;48.858;10.128;2023-04-01T19:45:48;7.60;99.90
6377;DHT22;3221;48.858;10.128;2023-04-01T19:53:41;7.60;99.90
6377;DHT22;3221;48.858;10.128;2023-04-01T19:56:20;7.60;99.90
6377;DHT22;3221;48.858;10.128;2023-04-01T20:02:14;7.70;99.90
6377;DHT22;3221;48.858;10.128;2023-04-01T20:07:27;7.70;99.90
6377;DHT22;3221;48.858;10.128;2023-04-01T20:10:08;7.70;99.90
6377;DHT22;3221;48.858;10.128;2023-04-01T20:15:43;7.60;99.90
6377;DHT22;3221;48.858;10.128;2023-04-01T20:18:55;7.70;99.90
6377;DHT22;3221;48.858;10.128;2023-04-01T20:21:40;7.60;99.90
6377;DHT22;3221;48.858;10.128;2023-04-01T20:24:19;7.60;99.90
6377;DHT22;3221;48.858;10.128;2023-04-01T20:27:03;7.60;99.90
6377;DHT22;3221;48.858;10.128;2023-04-01T20:29:40;7.70;99.90
6377;DHT22;3221;48.858;10.128;2023-04-01T20:32:41;7.70;99.90
6377;DHT22;3221;48.858;10.128;2023-04-01T20:41:23;7.50;99.90
6377;DHT22;3221;48.858;10.128;2023-04-01T20:44:11;7.50;99.90
6377;DHT22;3221;48.858;10.128;2023-04-01T20:49:41;7.50;99.90
6377;DHT22;3221;48.858;10.128;2023-04-01T20:52:37;7.50;99.90
6377;DHT22;3221;48.858;10.128;2023-04-01T20:55:21;7.50;99.90
6377;DHT22;3221;48.858;10.128;2023-04-01T21:03:49;7.50;99.90
6377;DHT22;3221;48.858;10.128;2023-04-01T21:06:37;7.40;99.90
6377;DHT22;3221;48.858;10.128;2023-04-01T21:12:15;7.50;99.90
6377;DHT22;3221;48.858;10.128;2023-04-01T21:17:58;7.40;99.90
6377;DHT22;3221;48.858;10.128;2023-04-01T21:32:40;7.40;99.90
6377;DHT22;3221;48.858;10.128;2023-04-01T21:46:38;7.50;99.90
6377;DHT22;3221;48.858;10.128;2023-04-01T21:49:57;7.40;99.90
6377;DHT22;3221;48.858;10.128;2023-04-01T21:52:38;7.40;99.90
6377;DHT22;3221;48.858;10.128;2023-04-01T22:00:48;7.30;99.90
6377;DHT22;3221;48.858;10.128;2023-04-01T22:06:21;7.30;99.90
6377;DHT22;3221;48.858;10.128;2023-04-01T22:09:12;7.30;99.90
6377;DHT22;3221;48.858;10.128;2023-04-01T22:11:52;7.30;99.90
6377;DHT22;3221;48.858;10.128;2023-04-01T22:14:38;7.30;99.90
6377;DHT22;3221;48.858;10.128;2023-04-01T22:20:14;7.40;99.90
6377;DHT22;3221;48.858;10.128;2023-04-01T22:28:24;7.20;99.90
6377;DHT22;3221;48.858;10.128;2023-04-01T22:31:02;7.30;99.90
6377;DHT22;3221;48.858;10.128;2023-04-01T22:38:51;7.40;99.90
6377;DHT22;3221;48.858;10.128;2023-04-01T22:44:00;7.30;99.90
6377;DHT22;3221;48.858;10.128;2023-04-01T22:46:46;7.30;99.90
6377;DHT22;3221;48.858;10.128;2023-04-01T22:49:26;7.20;99.90
6377;DHT22;3221;48.858;10.128;2023-04-01T22:52:01;7.20;99.90
6377;DHT22;3221;48.858;10.128;2023-04-01T22:54:46;7.20;99.90
6377;DHT22;3221;48.858;10.128;2023-04-01T23:05:28;7.50;99.90
6377;DHT22;3221;48.858;10.128;2023-04-01T23:08:07;7.30;99.90
6377;DHT22;3221;48.858;10.128;2023-04-01T23:10:53;7.40;99.90
6377;DHT22;3221;48.858;10.128;2023-04-01T23:13:36;7.30;99.90
6377;DHT22;3221;48.858;10.128;2023-04-01T23:16:06;7.30;99.90
6377;DHT22;3221;48.858;10.128;2023-04-01T23:21:26;7.40;99.90
6377;DHT22;3221;48.858;10.128;2023-04-01T23:26:40;7.30;99.90
6377;DHT22;3221;48.858;10.128;2023-04-01T23:29:14;7.30;99.90
6377;DHT22;3221;48.858;10.128;2023-04-01T23:31:44;7.30;99.90
6377;DHT22;3221;48.858;10.128;2023-04-01T23:36:49;7.20;99.90
6377;DHT22;3221;48.858;10.128;2023-04-01T23:39:34;7.20;99.90
6377;DHT22;3221;48.858;10.128;2023-04-01T23:42:28;7.30;99.90
6377;DHT22;3221;48.858;10.128;2023-04-01T23:44:58;7.30;99.90
6377;DHT22;3221;48.858;10.128;2023-04-01T23:47:34;7.20;99.90
6377;DHT22;3221;48.858;10.128;2023-04-01T23:50:18;7.20;99.90
6377;DHT22;3221;48.858;10.128;2023-04-01T23:53:16;7.20;99.90
6377;DHT22;3221;48.858;10.128;2023-04-01T23:55:44;7.20;99.90
6377;DHT22;3221;48.858;10.128;2023-04-01T23:58:38;7.20;99.90
